Terminal Aerodrome Forecast
Issued by NWS

Home | Current Version | Previous Version | Graphics & Text | Print | Product List | Glossary Off
Versions: 1 2 3 4 5 6 7 8 9 10 11 12 13 14 15 16 17

000
FTUS43 KICT 251500 AAB
TAFCNU
TAF AMD
KCNU 251508Z 2515/2612 01003KT 5SM BR SKC
     FM251600 05004KT P6SM SKC
     FM252000 09007KT P6SM SKC=

USA.gov is the U.S. government's official web portal to all federal, state and local government web resources and services.